sensor_id;sensor_type;location;lat;lon;timestamp;temperature;humidity
4739;DHT22;2383;48.632;10.156;2023-04-03T00:02:08;3.10;93.20
4739;DHT22;2383;48.632;10.156;2023-04-03T00:06:10;3.50;93.50
4739;DHT22;2383;48.632;10.156;2023-04-03T00:10:13;3.80;93.00
4739;DHT22;2383;48.632;10.156;2023-04-03T00:14:16;4.10;92.40
4739;DHT22;2383;48.632;10.156;2023-04-03T00:18:18;4.20;92.30
4739;DHT22;2383;48.632;10.156;2023-04-03T00:22:20;4.30;91.30
4739;DHT22;2383;48.632;10.156;2023-04-03T00:26:22;2.50;91.50
4739;DHT22;2383;48.632;10.156;2023-04-03T00:30:25;2.90;91.50
4739;DHT22;2383;48.632;10.156;2023-04-03T00:34:28;2.10;91.40
4739;DHT22;2383;48.632;10.156;2023-04-03T00:38:30;2.10;91.40
4739;DHT22;2383;48.632;10.156;2023-04-03T00:42:32;1.90;92.30
4739;DHT22;2383;48.632;10.156;2023-04-03T00:46:34;1.80;93.00
4739;DHT22;2383;48.632;10.156;2023-04-03T00:50:39;1.90;93.40
4739;DHT22;2383;48.632;10.156;2023-04-03T00:54:43;1.70;93.30
4739;DHT22;2383;48.632;10.156;2023-04-03T00:59:15;1.00;93.90
4739;DHT22;2383;48.632;10.156;2023-04-03T01:03:18;1.10;94.70
4739;DHT22;2383;48.632;10.156;2023-04-03T01:07:23;1.50;94.20
4739;DHT22;2383;48.632;10.156;2023-04-03T01:11:28;0.70;93.70
4739;DHT22;2383;48.632;10.156;2023-04-03T01:15:30;1.60;94.40
4739;DHT22;2383;48.632;10.156;2023-04-03T01:19:39;2.50;93.90
4739;DHT22;2383;48.632;10.156;2023-04-03T01:24:23;2.80;93.30
4739;DHT22;2383;48.632;10.156;2023-04-03T01:28:34;3.10;92.70
4739;DHT22;2383;48.632;10.156;2023-04-03T01:32:36;2.40;92.40
4739;DHT22;2383;48.632;10.156;2023-04-03T01:36:37;2.70;92.60
4739;DHT22;2383;48.632;10.156;2023-04-03T01:40:40;2.80;91.10
4739;DHT22;2383;48.632;10.156;2023-04-03T01:44:42;2.50;92.00
4739;DHT22;2383;48.632;10.156;2023-04-03T01:48:44;2.10;91.70
4739;DHT22;2383;48.632;10.156;2023-04-03T01:52:46;2.40;91.80
4739;DHT22;2383;48.632;10.156;2023-04-03T01:56:48;2.40;91.60
4739;DHT22;2383;48.632;10.156;2023-04-03T02:00:52;1.00;91.30
4739;DHT22;2383;48.632;10.156;2023-04-03T02:04:54;1.10;92.30
4739;DHT22;2383;48.632;10.156;2023-04-03T02:08:56;1.40;92.70
4739;DHT22;2383;48.632;10.156;2023-04-03T02:12:58;1.50;93.00
4739;DHT22;2383;48.632;10.156;2023-04-03T02:17:01;0.70;93.10
4739;DHT22;2383;48.632;10.156;2023-04-03T02:21:06;0.40;92.50
4739;DHT22;2383;48.632;10.156;2023-04-03T02:25:09;1.50;92.50
4739;DHT22;2383;48.632;10.156;2023-04-03T02:29:11;1.60;91.80
4739;DHT22;2383;48.632;10.156;2023-04-03T02:33:13;1.80;91.30
4739;DHT22;2383;48.632;10.156;2023-04-03T02:37:16;2.40;91.10
4739;DHT22;2383;48.632;10.156;2023-04-03T02:41:20;0.80;91.50
4739;DHT22;2383;48.632;10.156;2023-04-03T02:45:24;1.20;91.30
4739;DHT22;2383;48.632;10.156;2023-04-03T02:49:26;1.20;92.00
4739;DHT22;2383;48.632;10.156;2023-04-03T02:53:29;2.00;91.40
4739;DHT22;2383;48.632;10.156;2023-04-03T02:57:32;2.30;91.20
4739;DHT22;2383;48.632;10.156;2023-04-03T03:01:34;1.70;91.20
4739;DHT22;2383;48.632;10.156;2023-04-03T03:05:36;1.20;90.70
4739;DHT22;2383;48.632;10.156;2023-04-03T03:09:38;2.30;90.70
4739;DHT22;2383;48.632;10.156;2023-04-03T03:13:40;2.20;90.20
4739;DHT22;2383;48.632;10.156;2023-04-03T03:17:42;1.80;89.10
4739;DHT22;2383;48.632;10.156;2023-04-03T03:21:44;2.30;90.30
4739;DHT22;2383;48.632;10.156;2023-04-03T03:25:46;2.10;90.10
4739;DHT22;2383;48.632;10.156;2023-04-03T03:29:48;1.90;88.70
4739;DHT22;2383;48.632;10.156;2023-04-03T03:33:50;1.60;89.20
4739;DHT22;2383;48.632;10.156;2023-04-03T03:37:53;1.20;90.10
4739;DHT22;2383;48.632;10.156;2023-04-03T03:41:55;1.50;90.30
4739;DHT22;2383;48.632;10.156;2023-04-03T03:45:58;2.10;89.60
4739;DHT22;2383;48.632;10.156;2023-04-03T03:50:01;0.90;90.80
4739;DHT22;2383;48.632;10.156;2023-04-03T03:54:04;1.20;90.90
4739;DHT22;2383;48.632;10.156;2023-04-03T03:58:06;2.20;90.40
4739;DHT22;2383;48.632;10.156;2023-04-03T04:02:10;2.40;90.20
4739;DHT22;2383;48.632;10.156;2023-04-03T04:06:12;2.70;90.10
4739;DHT22;2383;48.632;10.156;2023-04-03T04:10:15;2.00;90.30
4739;DHT22;2383;48.632;10.156;2023-04-03T04:14:18;2.30;90.50
4739;DHT22;2383;48.632;10.156;2023-04-03T04:18:23;2.30;90.20
4739;DHT22;2383;48.632;10.156;2023-04-03T04:22:26;1.90;90.70
4739;DHT22;2383;48.632;10.156;2023-04-03T04:26:28;2.20;90.60
4739;DHT22;2383;48.632;10.156;2023-04-03T04:30:30;2.40;90.60
4739;DHT22;2383;48.632;10.156;2023-04-03T04:34:33;2.50;90.30
4739;DHT22;2383;48.632;10.156;2023-04-03T04:38:35;2.30;90.20
4739;DHT22;2383;48.632;10.156;2023-04-03T04:42:38;2.50;90.10
4739;DHT22;2383;48.632;10.156;2023-04-03T04:46:40;2.40;90.40
4739;DHT22;2383;48.632;10.156;2023-04-03T04:50:43;1.40;90.30
4739;DHT22;2383;48.632;10.156;2023-04-03T04:54:45;1.20;91.10
4739;DHT22;2383;48.632;10.156;2023-04-03T04:58:48;1.70;91.50
4739;DHT22;2383;48.632;10.156;2023-04-03T05:02:52;1.00;91.20
4739;DHT22;2383;48.632;10.156;2023-04-03T05:06:54;1.20;91.60
4739;DHT22;2383;48.632;10.156;2023-04-03T05:11:00;1.10;91.50
4739;DHT22;2383;48.632;10.156;2023-04-03T05:15:03;0.90;91.80
4739;DHT22;2383;48.632;10.156;2023-04-03T05:19:06;1.20;91.90
4739;DHT22;2383;48.632;10.156;2023-04-03T05:23:10;0.50;92.50
4739;DHT22;2383;48.632;10.156;2023-04-03T05:27:14;0.90;92.10
4739;DHT22;2383;48.632;10.156;2023-04-03T05:31:19;1.10;92.20
4739;DHT22;2383;48.632;10.156;2023-04-03T05:35:22;1.00;92.20
4739;DHT22;2383;48.632;10.156;2023-04-03T05:39:28;1.00;92.10
4739;DHT22;2383;48.632;10.156;2023-04-03T05:43:34;0.80;92.30
4739;DHT22;2383;48.632;10.156;2023-04-03T05:47:41;0.70;92.50
4739;DHT22;2383;48.632;10.156;2023-04-03T05:51:43;1.00;92.60
4739;DHT22;2383;48.632;10.156;2023-04-03T05:55:56;0.60;92.80
4739;DHT22;2383;48.632;10.156;2023-04-03T05:59:58;0.90;92.40
4739;DHT22;2383;48.632;10.156;2023-04-03T06:04:00;1.10;92.30
4739;DHT22;2383;48.632;10.156;2023-04-03T06:08:04;0.50;92.20
4739;DHT22;2383;48.632;10.156;2023-04-03T06:12:07;0.30;93.00
4739;DHT22;2383;48.632;10.156;2023-04-03T06:16:12;-0.30;93.50
4739;DHT22;2383;48.632;10.156;2023-04-03T06:20:17;-0.50;94.10
4739;DHT22;2383;48.632;10.156;2023-04-03T06:24:19;0.00;93.30
4739;DHT22;2383;48.632;10.156;2023-04-03T06:28:23;-0.20;93.90
4739;DHT22;2383;48.632;10.156;2023-04-03T06:32:27;0.80;93.50
4739;DHT22;2383;48.632;10.156;2023-04-03T06:36:30;1.70;92.20
4739;DHT22;2383;48.632;10.156;2023-04-03T06:40:31;1.70;92.30
4739;DHT22;2383;48.632;10.156;2023-04-03T06:44:34;0.20;92.80
4739;DHT22;2383;48.632;10.156;2023-04-03T06:48:36;-0.60;94.30
4739;DHT22;2383;48.632;10.156;2023-04-03T06:52:38;1.20;93.30
4739;DHT22;2383;48.632;10.156;2023-04-03T06:56:41;0.20;93.30
4739;DHT22;2383;48.632;10.156;2023-04-03T07:00:43;0.20;93.30
4739;DHT22;2383;48.632;10.156;2023-04-03T07:04:45;0.70;93.70
4739;DHT22;2383;48.632;10.156;2023-04-03T07:08:47;1.00;92.80
4739;DHT22;2383;48.632;10.156;2023-04-03T07:12:52;0.90;93.00
4739;DHT22;2383;48.632;10.156;2023-04-03T07:16:54;1.40;92.90
4739;DHT22;2383;48.632;10.156;2023-04-03T07:20:57;1.10;92.80
4739;DHT22;2383;48.632;10.156;2023-04-03T07:24:59;1.40;92.70
4739;DHT22;2383;48.632;10.156;2023-04-03T07:29:02;1.20;93.10
4739;DHT22;2383;48.632;10.156;2023-04-03T07:33:04;0.80;93.70
4739;DHT22;2383;48.632;10.156;2023-04-03T07:37:06;0.40;94.10
4739;DHT22;2383;48.632;10.156;2023-04-03T07:41:14;0.70;93.80
4739;DHT22;2383;48.632;10.156;2023-04-03T07:45:16;0.50;94.20
4739;DHT22;2383;48.632;10.156;2023-04-03T07:49:19;0.20;93.70
4739;DHT22;2383;48.632;10.156;2023-04-03T07:53:21;0.50;94.30
4739;DHT22;2383;48.632;10.156;2023-04-03T07:57:23;0.60;94.60
4739;DHT22;2383;48.632;10.156;2023-04-03T08:01:26;0.40;94.60
4739;DHT22;2383;48.632;10.156;2023-04-03T08:05:28;0.80;94.60
4739;DHT22;2383;48.632;10.156;2023-04-03T08:09:30;0.90;94.60
4739;DHT22;2383;48.632;10.156;2023-04-03T08:13:33;1.30;94.00
4739;DHT22;2383;48.632;10.156;2023-04-03T08:17:37;2.10;93.00
4739;DHT22;2383;48.632;10.156;2023-04-03T08:21:42;2.10;93.30
4739;DHT22;2383;48.632;10.156;2023-04-03T08:25:44;2.20;93.20
4739;DHT22;2383;48.632;10.156;2023-04-03T08:29:46;1.00;94.30
4739;DHT22;2383;48.632;10.156;2023-04-03T08:33:48;1.20;94.50
4739;DHT22;2383;48.632;10.156;2023-04-03T08:37:50;1.60;93.70
4739;DHT22;2383;48.632;10.156;2023-04-03T08:41:55;0.80;94.20
4739;DHT22;2383;48.632;10.156;2023-04-03T08:46:01;0.80;95.00
4739;DHT22;2383;48.632;10.156;2023-04-03T08:50:17;1.50;94.00
4739;DHT22;2383;48.632;10.156;2023-04-03T08:54:51;1.60;94.50
4739;DHT22;2383;48.632;10.156;2023-04-03T08:59:00;2.00;92.80
4739;DHT22;2383;48.632;10.156;2023-04-03T09:03:12;2.10;92.90
4739;DHT22;2383;48.632;10.156;2023-04-03T09:07:24;1.60;92.70
4739;DHT22;2383;48.632;10.156;2023-04-03T09:15:48;2.20;91.70
4739;DHT22;2383;48.632;10.156;2023-04-03T09:24:20;2.40;91.50
4739;DHT22;2383;48.632;10.156;2023-04-03T09:28:24;2.10;91.30
4739;DHT22;2383;48.632;10.156;2023-04-03T09:36:45;3.20;91.40
4739;DHT22;2383;48.632;10.156;2023-04-03T09:41:05;3.20;90.70
4739;DHT22;2383;48.632;10.156;2023-04-03T09:45:23;3.10;91.20
4739;DHT22;2383;48.632;10.156;2023-04-03T09:49:26;2.40;91.40
4739;DHT22;2383;48.632;10.156;2023-04-03T09:57:37;1.40;92.40
4739;DHT22;2383;48.632;10.156;2023-04-03T10:01:42;1.50;92.10
4739;DHT22;2383;48.632;10.156;2023-04-03T10:05:45;1.80;90.90
4739;DHT22;2383;48.632;10.156;2023-04-03T10:10:03;2.40;90.60
4739;DHT22;2383;48.632;10.156;2023-04-03T10:14:16;1.70;90.20
4739;DHT22;2383;48.632;10.156;2023-04-03T10:18:48;2.80;90.90
4739;DHT22;2383;48.632;10.156;2023-04-03T10:31:46;2.90;89.40
4739;DHT22;2383;48.632;10.156;2023-04-03T10:36:10;2.40;88.00
4739;DHT22;2383;48.632;10.156;2023-04-03T10:54:24;2.70;87.80
4739;DHT22;2383;48.632;10.156;2023-04-03T10:57:59;3.10;88.40
4739;DHT22;2383;48.632;10.156;2023-04-03T11:06:19;2.40;89.60
4739;DHT22;2383;48.632;10.156;2023-04-03T11:10:36;1.80;90.40
4739;DHT22;2383;48.632;10.156;2023-04-03T11:14:39;1.80;88.70
4739;DHT22;2383;48.632;10.156;2023-04-03T11:18:46;0.70;90.50
4739;DHT22;2383;48.632;10.156;2023-04-03T11:23:21;1.00;90.60
4739;DHT22;2383;48.632;10.156;2023-04-03T11:27:47;1.10;89.80
4739;DHT22;2383;48.632;10.156;2023-04-03T11:32:32;1.10;90.50
4739;DHT22;2383;48.632;10.156;2023-04-03T11:36:49;0.90;89.90
4739;DHT22;2383;48.632;10.156;2023-04-03T11:40:54;1.10;90.30
4739;DHT22;2383;48.632;10.156;2023-04-03T11:53:53;2.30;87.90
4739;DHT22;2383;48.632;10.156;2023-04-03T12:02:01;1.90;87.80
4739;DHT22;2383;48.632;10.156;2023-04-03T12:10:17;2.70;86.30
4739;DHT22;2383;48.632;10.156;2023-04-03T12:14:33;1.40;86.20
4739;DHT22;2383;48.632;10.156;2023-04-03T12:23:07;2.40;86.20
4739;DHT22;2383;48.632;10.156;2023-04-03T12:27:23;3.20;84.90
4739;DHT22;2383;48.632;10.156;2023-04-03T12:31:38;2.10;86.40
4739;DHT22;2383;48.632;10.156;2023-04-03T12:36:18;2.00;85.30
4739;DHT22;2383;48.632;10.156;2023-04-03T12:40:31;2.20;87.10
4739;DHT22;2383;48.632;10.156;2023-04-03T12:49:38;2.10;86.80
4739;DHT22;2383;48.632;10.156;2023-04-03T12:53:41;1.70;85.50
4739;DHT22;2383;48.632;10.156;2023-04-03T12:57:44;1.60;89.50
4739;DHT22;2383;48.632;10.156;2023-04-03T13:06:35;1.70;84.50
4739;DHT22;2383;48.632;10.156;2023-04-03T13:10:58;2.50;86.10
4739;DHT22;2383;48.632;10.156;2023-04-03T13:15:12;2.80;83.90
4739;DHT22;2383;48.632;10.156;2023-04-03T13:19:17;2.80;82.90
4739;DHT22;2383;48.632;10.156;2023-04-03T13:23:20;3.60;81.10
4739;DHT22;2383;48.632;10.156;2023-04-03T13:27:23;2.90;78.90
4739;DHT22;2383;48.632;10.156;2023-04-03T13:31:29;2.70;82.00
4739;DHT22;2383;48.632;10.156;2023-04-03T13:39:39;3.00;80.90
4739;DHT22;2383;48.632;10.156;2023-04-03T13:43:41;2.10;82.30
4739;DHT22;2383;48.632;10.156;2023-04-03T13:47:44;2.30;80.20
4739;DHT22;2383;48.632;10.156;2023-04-03T13:51:48;3.20;80.40
4739;DHT22;2383;48.632;10.156;2023-04-03T13:56:13;3.30;78.80
4739;DHT22;2383;48.632;10.156;2023-04-03T14:00:38;3.70;78.80
4739;DHT22;2383;48.632;10.156;2023-04-03T14:08:46;3.50;80.00
4739;DHT22;2383;48.632;10.156;2023-04-03T14:12:50;3.30;79.60
4739;DHT22;2383;48.632;10.156;2023-04-03T14:16:58;2.30;80.50
4739;DHT22;2383;48.632;10.156;2023-04-03T14:21:01;2.40;82.60
4739;DHT22;2383;48.632;10.156;2023-04-03T14:25:03;3.00;79.50
4739;DHT22;2383;48.632;10.156;2023-04-03T14:29:06;3.60;78.90
4739;DHT22;2383;48.632;10.156;2023-04-03T14:33:13;3.80;78.30
4739;DHT22;2383;48.632;10.156;2023-04-03T14:37:18;4.00;75.80
4739;DHT22;2383;48.632;10.156;2023-04-03T14:41:23;4.40;74.20
4739;DHT22;2383;48.632;10.156;2023-04-03T14:45:25;4.40;74.10
4739;DHT22;2383;48.632;10.156;2023-04-03T14:49:28;4.30;74.60
4739;DHT22;2383;48.632;10.156;2023-04-03T14:53:31;4.20;71.50
4739;DHT22;2383;48.632;10.156;2023-04-03T14:57:40;3.90;73.30
4739;DHT22;2383;48.632;10.156;2023-04-03T15:01:42;3.30;74.80
4739;DHT22;2383;48.632;10.156;2023-04-03T15:05:46;2.70;77.10
4739;DHT22;2383;48.632;10.156;2023-04-03T15:09:48;3.00;77.10
4739;DHT22;2383;48.632;10.156;2023-04-03T15:13:51;2.30;76.20
4739;DHT22;2383;48.632;10.156;2023-04-03T15:17:55;2.50;76.70
4739;DHT22;2383;48.632;10.156;2023-04-03T15:22:00;2.00;78.30
4739;DHT22;2383;48.632;10.156;2023-04-03T15:26:02;2.60;78.00
4739;DHT22;2383;48.632;10.156;2023-04-03T15:30:06;2.70;77.70
4739;DHT22;2383;48.632;10.156;2023-04-03T15:34:08;2.90;76.00
4739;DHT22;2383;48.632;10.156;2023-04-03T15:38:11;3.80;73.20
4739;DHT22;2383;48.632;10.156;2023-04-03T15:42:13;2.70;72.80
4739;DHT22;2383;48.632;10.156;2023-04-03T15:46:15;2.80;73.10
4739;DHT22;2383;48.632;10.156;2023-04-03T15:50:17;2.10;74.00
4739;DHT22;2383;48.632;10.156;2023-04-03T15:54:19;2.60;75.00
4739;DHT22;2383;48.632;10.156;2023-04-03T15:58:21;2.40;76.80
4739;DHT22;2383;48.632;10.156;2023-04-03T16:02:23;3.10;77.60
4739;DHT22;2383;48.632;10.156;2023-04-03T16:06:29;3.50;75.70
4739;DHT22;2383;48.632;10.156;2023-04-03T16:10:32;3.80;74.40
4739;DHT22;2383;48.632;10.156;2023-04-03T16:14:34;2.40;76.50
4739;DHT22;2383;48.632;10.156;2023-04-03T16:18:36;3.00;76.50
4739;DHT22;2383;48.632;10.156;2023-04-03T16:22:38;3.50;74.20
4739;DHT22;2383;48.632;10.156;2023-04-03T16:26:41;3.20;74.70
4739;DHT22;2383;48.632;10.156;2023-04-03T16:30:44;3.10;74.00
4739;DHT22;2383;48.632;10.156;2023-04-03T16:34:48;3.70;73.90
4739;DHT22;2383;48.632;10.156;2023-04-03T16:38:50;2.50;71.90
4739;DHT22;2383;48.632;10.156;2023-04-03T16:42:52;3.10;73.60
4739;DHT22;2383;48.632;10.156;2023-04-03T16:46:53;3.90;70.20
4739;DHT22;2383;48.632;10.156;2023-04-03T16:50:56;3.50;69.70
4739;DHT22;2383;48.632;10.156;2023-04-03T16:54:58;3.50;70.70
4739;DHT22;2383;48.632;10.156;2023-04-03T16:59:00;3.70;68.10
4739;DHT22;2383;48.632;10.156;2023-04-03T17:03:02;3.40;69.70
4739;DHT22;2383;48.632;10.156;2023-04-03T17:07:04;4.10;70.50
4739;DHT22;2383;48.632;10.156;2023-04-03T17:11:08;3.90;69.30
4739;DHT22;2383;48.632;10.156;2023-04-03T17:15:10;4.00;67.90
4739;DHT22;2383;48.632;10.156;2023-04-03T17:19:12;3.60;69.80
4739;DHT22;2383;48.632;10.156;2023-04-03T17:23:14;2.70;72.10
4739;DHT22;2383;48.632;10.156;2023-04-03T17:27:17;2.90;72.00
4739;DHT22;2383;48.632;10.156;2023-04-03T17:31:19;3.30;72.30
4739;DHT22;2383;48.632;10.156;2023-04-03T17:35:21;1.50;74.00
4739;DHT22;2383;48.632;10.156;2023-04-03T17:39:23;1.90;75.30
4739;DHT22;2383;48.632;10.156;2023-04-03T17:43:25;2.30;76.00
4739;DHT22;2383;48.632;10.156;2023-04-03T17:47:27;3.00;76.60
4739;DHT22;2383;48.632;10.156;2023-04-03T17:51:32;2.70;76.90
4739;DHT22;2383;48.632;10.156;2023-04-03T17:55:37;2.60;76.20
4739;DHT22;2383;48.632;10.156;2023-04-03T17:59:40;2.30;77.70
4739;DHT22;2383;48.632;10.156;2023-04-03T18:03:42;3.20;78.50
4739;DHT22;2383;48.632;10.156;2023-04-03T18:07:45;2.50;78.20
4739;DHT22;2383;48.632;10.156;2023-04-03T18:11:47;2.50;78.70
4739;DHT22;2383;48.632;10.156;2023-04-03T18:15:50;2.10;79.30
4739;DHT22;2383;48.632;10.156;2023-04-03T18:19:52;1.70;80.10
4739;DHT22;2383;48.632;10.156;2023-04-03T18:23:55;2.00;79.70
4739;DHT22;2383;48.632;10.156;2023-04-03T18:27:57;1.80;77.90
4739;DHT22;2383;48.632;10.156;2023-04-03T18:32:01;1.80;80.60
4739;DHT22;2383;48.632;10.156;2023-04-03T18:36:07;1.20;80.50
4739;DHT22;2383;48.632;10.156;2023-04-03T18:40:09;0.90;80.90
4739;DHT22;2383;48.632;10.156;2023-04-03T18:44:14;2.00;80.90
4739;DHT22;2383;48.632;10.156;2023-04-03T18:48:18;1.30;80.40
4739;DHT22;2383;48.632;10.156;2023-04-03T18:52:21;0.90;80.60
4739;DHT22;2383;48.632;10.156;2023-04-03T18:56:25;1.50;81.90
4739;DHT22;2383;48.632;10.156;2023-04-03T19:00:27;1.30;80.60
4739;DHT22;2383;48.632;10.156;2023-04-03T19:04:30;0.50;80.20
4739;DHT22;2383;48.632;10.156;2023-04-03T19:08:32;0.50;81.20
4739;DHT22;2383;48.632;10.156;2023-04-03T19:12:34;0.80;82.20
4739;DHT22;2383;48.632;10.156;2023-04-03T19:16:36;0.40;81.50
4739;DHT22;2383;48.632;10.156;2023-04-03T19:20:39;1.20;81.50
4739;DHT22;2383;48.632;10.156;2023-04-03T19:24:40;0.70;80.90
4739;DHT22;2383;48.632;10.156;2023-04-03T19:28:43;0.40;81.30
4739;DHT22;2383;48.632;10.156;2023-04-03T19:32:45;0.40;81.20
4739;DHT22;2383;48.632;10.156;2023-04-03T19:36:47;0.60;82.10
4739;DHT22;2383;48.632;10.156;2023-04-03T19:40:53;0.60;80.90
4739;DHT22;2383;48.632;10.156;2023-04-03T19:44:56;1.00;80.90
4739;DHT22;2383;48.632;10.156;2023-04-03T19:48:58;1.50;80.90
4739;DHT22;2383;48.632;10.156;2023-04-03T19:53:01;1.00;80.40
4739;DHT22;2383;48.632;10.156;2023-04-03T19:57:03;1.20;80.50
4739;DHT22;2383;48.632;10.156;2023-04-03T20:01:05;1.00;81.20
4739;DHT22;2383;48.632;10.156;2023-04-03T20:05:07;1.40;81.00
4739;DHT22;2383;48.632;10.156;2023-04-03T20:09:10;0.70;81.80
4739;DHT22;2383;48.632;10.156;2023-04-03T20:13:12;1.40;79.30
4739;DHT22;2383;48.632;10.156;2023-04-03T20:17:14;1.50;76.20
4739;DHT22;2383;48.632;10.156;2023-04-03T20:21:17;2.10;75.20
4739;DHT22;2383;48.632;10.156;2023-04-03T20:25:19;2.40;75.00
4739;DHT22;2383;48.632;10.156;2023-04-03T20:29:42;2.60;75.00
4739;DHT22;2383;48.632;10.156;2023-04-03T20:33:45;2.60;75.30
4739;DHT22;2383;48.632;10.156;2023-04-03T20:37:48;2.80;75.00
4739;DHT22;2383;48.632;10.156;2023-04-03T20:41:50;2.70;74.80
4739;DHT22;2383;48.632;10.156;2023-04-03T20:45:52;2.50;74.40
4739;DHT22;2383;48.632;10.156;2023-04-03T20:49:54;2.60;74.80
4739;DHT22;2383;48.632;10.156;2023-04-03T20:53:57;2.60;74.40
4739;DHT22;2383;48.632;10.156;2023-04-03T20:57:59;2.80;74.30
4739;DHT22;2383;48.632;10.156;2023-04-03T21:02:02;2.40;75.30
4739;DHT22;2383;48.632;10.156;2023-04-03T21:19:56;1.30;74.60
4739;DHT22;2383;48.632;10.156;2023-04-03T21:23:58;1.90;74.00
4739;DHT22;2383;48.632;10.156;2023-04-03T21:28:03;0.90;73.00
4739;DHT22;2383;48.632;10.156;2023-04-03T21:32:05;0.10;74.80
4739;DHT22;2383;48.632;10.156;2023-04-03T21:36:07;0.30;75.90
4739;DHT22;2383;48.632;10.156;2023-04-03T21:40:10;-0.40;74.20
4739;DHT22;2383;48.632;10.156;2023-04-03T21:44:12;0.20;75.20
4739;DHT22;2383;48.632;10.156;2023-04-03T21:48:14;0.90;73.90
4739;DHT22;2383;48.632;10.156;2023-04-03T21:52:19;0.70;73.00
4739;DHT22;2383;48.632;10.156;2023-04-03T21:56:22;0.10;73.90
4739;DHT22;2383;48.632;10.156;2023-04-03T22:00:25;0.80;73.90
4739;DHT22;2383;48.632;10.156;2023-04-03T22:04:27;0.70;73.10
4739;DHT22;2383;48.632;10.156;2023-04-03T22:20:32;0.60;71.30
4739;DHT22;2383;48.632;10.156;2023-04-03T22:24:34;0.70;72.40
4739;DHT22;2383;48.632;10.156;2023-04-03T22:28:41;0.90;72.20
4739;DHT22;2383;48.632;10.156;2023-04-03T22:32:43;0.80;71.60
4739;DHT22;2383;48.632;10.156;2023-04-03T22:36:45;0.40;72.60
4739;DHT22;2383;48.632;10.156;2023-04-03T22:40:49;1.00;72.90
4739;DHT22;2383;48.632;10.156;2023-04-03T22:50:56;1.10;72.80
4739;DHT22;2383;48.632;10.156;2023-04-03T22:54:59;0.80;71.50
4739;DHT22;2383;48.632;10.156;2023-04-03T22:59:19;0.20;71.70
4739;DHT22;2383;48.632;10.156;2023-04-03T23:03:22;0.20;71.70
4739;DHT22;2383;48.632;10.156;2023-04-03T23:07:25;-0.70;73.10
4739;DHT22;2383;48.632;10.156;2023-04-03T23:11:27;-0.90;73.70
4739;DHT22;2383;48.632;10.156;2023-04-03T23:15:29;-0.90;74.00
4739;DHT22;2383;48.632;10.156;2023-04-03T23:19:31;-1.10;74.10
4739;DHT22;2383;48.632;10.156;2023-04-03T23:23:35;-0.70;75.00
4739;DHT22;2383;48.632;10.156;2023-04-03T23:27:37;0.00;74.60
4739;DHT22;2383;48.632;10.156;2023-04-03T23:31:39;0.30;74.20
4739;DHT22;2383;48.632;10.156;2023-04-03T23:35:42;0.10;74.00
4739;DHT22;2383;48.632;10.156;2023-04-03T23:39:49;0.30;74.60
4739;DHT22;2383;48.632;10.156;2023-04-03T23:43:51;0.10;73.80
4739;DHT22;2383;48.632;10.156;2023-04-03T23:47:53;0.40;74.70
4739;DHT22;2383;48.632;10.156;2023-04-03T23:51:55;0.00;74.10
4739;DHT22;2383;48.632;10.156;2023-04-03T23:55:58;0.30;75.00
